createdAt,value
2023-05-05T00:01:00.469Z,7.09
2023-05-05T00:06:00.441Z,7.16
2023-05-05T00:11:00.415Z,7.30
2023-05-05T00:16:00.366Z,7.21
2023-05-05T00:21:00.332Z,7.15
2023-05-05T00:26:00.291Z,7.12
2023-05-05T00:31:00.362Z,7.09
2023-05-05T00:36:00.245Z,7.16
2023-05-05T00:41:00.223Z,7.27
2023-05-05T00:46:00.237Z,7.32
2023-05-05T00:51:00.197Z,7.39
2023-05-05T00:56:00.198Z,7.44
2023-05-05T01:01:00.176Z,7.39
2023-05-05T01:06:00.159Z,7.23
2023-05-05T01:11:00.126Z,7.01
2023-05-05T01:16:00.082Z,6.93
2023-05-05T01:21:00.022Z,6.90
2023-05-05T01:25:59.990Z,6.93
2023-05-05T01:30:59.967Z,6.99
2023-05-05T01:35:59.936Z,7.04
2023-05-05T01:40:59.954Z,7.04
2023-05-05T01:46:00.262Z,7.08
2023-05-05T01:50:59.864Z,7.01
2023-05-05T01:55:59.856Z,6.99
2023-05-05T02:00:59.845Z,7.01
2023-05-05T02:05:59.786Z,6.96
2023-05-05T02:10:59.755Z,6.78
2023-05-05T02:15:59.801Z,6.64
2023-05-05T02:20:59.729Z,6.69
2023-05-05T02:25:59.672Z,6.75
2023-05-05T02:30:59.738Z,6.72
2023-05-05T02:35:59.609Z,6.81
2023-05-05T02:40:59.609Z,6.75
2023-05-05T02:45:59.601Z,6.72
2023-05-05T02:50:59.546Z,6.69
2023-05-05T02:55:59.515Z,6.60
2023-05-05T03:00:59.482Z,6.57
2023-05-05T03:05:59.425Z,6.51
2023-05-05T03:10:59.402Z,6.30
2023-05-05T03:15:59.390Z,6.14
2023-05-05T03:20:59.391Z,6.06
2023-05-05T03:25:59.315Z,6.19
2023-05-05T03:30:59.353Z,6.27
2023-05-05T03:35:59.246Z,6.25
2023-05-05T03:40:59.222Z,6.27
2023-05-05T03:45:59.191Z,6.30
2023-05-05T03:50:59.147Z,6.27
2023-05-05T03:55:59.144Z,6.35
2023-05-05T04:00:59.085Z,6.45
2023-05-05T04:05:59.075Z,6.50
2023-05-05T04:10:59.055Z,6.54
2023-05-05T04:15:59.083Z,6.54
2023-05-05T04:20:59.009Z,6.68
2023-05-05T04:25:58.948Z,6.78
2023-05-05T04:30:58.952Z,6.93
2023-05-05T04:35:58.918Z,7.12
2023-05-05T04:40:58.934Z,7.26
2023-05-05T04:45:58.841Z,7.55
2023-05-05T04:50:58.806Z,7.88
2023-05-05T04:55:58.749Z,8.10
2023-05-05T05:00:58.734Z,8.36
2023-05-05T05:05:58.687Z,8.60
2023-05-05T05:10:58.641Z,8.83
2023-05-05T05:15:58.608Z,9.00
2023-05-05T05:20:58.567Z,9.03
2023-05-05T05:25:58.527Z,9.13
2023-05-05T05:30:58.573Z,9.19
2023-05-05T05:35:58.457Z,9.42
2023-05-05T05:40:58.448Z,9.62
2023-05-05T05:45:58.463Z,9.78
2023-05-05T05:50:58.411Z,9.91
2023-05-05T05:55:58.376Z,10.13
2023-05-05T06:00:58.336Z,10.11
2023-05-05T06:05:58.290Z,10.26
2023-05-05T06:10:58.284Z,10.58
2023-05-05T06:15:58.298Z,10.69
2023-05-05T06:20:58.234Z,10.95
2023-05-05T06:25:58.197Z,11.30
2023-05-05T06:30:58.200Z,11.63
2023-05-05T06:35:58.129Z,11.78
2023-05-05T06:40:58.111Z,12.04
2023-05-05T06:45:58.067Z,12.03
2023-05-05T06:50:58.054Z,12.51
2023-05-05T06:55:58.053Z,12.85
2023-05-05T07:00:58.047Z,13.39
2023-05-05T07:05:57.968Z,13.35
2023-05-05T07:10:57.963Z,14.12
2023-05-05T07:15:57.915Z,14.64
2023-05-05T07:20:57.874Z,14.57
2023-05-05T07:25:57.831Z,15.03
2023-05-05T07:30:57.824Z,14.54
2023-05-05T07:35:57.787Z,18.78
2023-05-05T07:40:57.759Z,20.17
2023-05-05T07:45:57.789Z,17.87
2023-05-05T07:50:57.692Z,17.99
2023-05-05T07:55:57.669Z,18.84
2023-05-05T08:00:57.647Z,18.71
2023-05-05T08:05:57.633Z,21.33
2023-05-05T08:10:57.687Z,20.57
2023-05-05T08:15:57.669Z,20.48
2023-05-05T08:20:57.516Z,19.65
2023-05-05T08:25:57.510Z,20.90
2023-05-05T08:30:57.431Z,21.12
2023-05-05T08:35:57.443Z,20.34
2023-05-05T08:40:57.435Z,22.97
2023-05-05T08:45:57.396Z,21.82
2023-05-05T08:50:59.507Z,22.17
2023-05-05T08:55:57.744Z,21.27
2023-05-05T09:00:57.356Z,21.93
2023-05-05T09:05:57.301Z,23.62
2023-05-05T09:10:57.267Z,21.82
2023-05-05T09:15:57.250Z,21.21
2023-05-05T09:20:59.387Z,21.98
2023-05-05T09:25:59.190Z,22.14
2023-05-05T09:30:57.216Z,20.63
2023-05-05T09:35:57.466Z,21.16
2023-05-05T09:40:57.279Z,20.63
2023-05-05T09:45:57.084Z,20.61
2023-05-05T09:50:59.340Z,22.06
2023-05-05T09:55:57.043Z,20.34
2023-05-05T10:00:56.963Z,19.64
2023-05-05T10:05:56.950Z,20.27
2023-05-05T10:10:56.871Z,21.31
2023-05-05T10:15:57.277Z,21.64
2023-05-05T10:20:56.796Z,23.41
2023-05-05T10:25:56.784Z,22.57
2023-05-05T10:30:56.767Z,21.21
2023-05-05T10:35:56.756Z,23.14
2023-05-05T10:40:56.724Z,22.82
2023-05-05T10:45:56.949Z,21.46
2023-05-05T10:50:56.667Z,23.41
2023-05-05T10:55:56.727Z,23.21
2023-05-05T11:00:56.557Z,21.73
2023-05-05T11:05:56.500Z,23.39
2023-05-05T11:10:56.477Z,23.19
2023-05-05T11:15:56.452Z,24.30
2023-05-05T11:20:56.437Z,23.12
2023-05-05T11:25:56.374Z,23.75
2023-05-05T11:30:57.278Z,24.74
2023-05-05T11:35:56.355Z,24.52
2023-05-05T11:40:56.365Z,24.21
2023-05-05T11:45:56.239Z,24.79
2023-05-05T11:50:56.193Z,25.27
2023-05-05T11:55:56.176Z,24.05
2023-05-05T12:00:58.803Z,23.84
2023-05-05T12:05:56.098Z,24.33
2023-05-05T12:10:56.057Z,23.42
2023-05-05T12:15:56.040Z,23.45
2023-05-05T12:20:55.991Z,24.77
2023-05-05T12:25:57.883Z,24.53
2023-05-05T12:30:55.932Z,25.90
2023-05-05T12:35:55.903Z,23.26
2023-05-05T12:40:55.868Z,23.71
2023-05-05T12:45:55.873Z,23.82
2023-05-05T12:50:55.834Z,22.89
2023-05-05T12:55:55.830Z,23.07
2023-05-05T13:00:55.961Z,23.16
2023-05-05T13:05:55.756Z,23.34
2023-05-05T13:10:55.780Z,22.78
2023-05-05T13:15:55.779Z,22.94
2023-05-05T13:20:55.799Z,23.29
2023-05-05T13:25:55.658Z,23.22
2023-05-05T13:30:55.634Z,22.89
2023-05-05T13:35:55.598Z,22.91
2023-05-05T13:40:55.554Z,22.64
2023-05-05T13:46:02.814Z,22.64
2023-05-05T13:50:55.475Z,23.32
2023-05-05T13:55:55.438Z,22.99
2023-05-05T14:00:55.432Z,22.86
2023-05-05T14:05:55.363Z,22.72
2023-05-05T14:10:55.322Z,22.89
2023-05-05T14:15:55.289Z,23.00
2023-05-05T14:20:55.267Z,22.66
2023-05-05T14:25:55.210Z,22.74
2023-05-05T14:30:55.152Z,22.70
2023-05-05T14:35:55.117Z,22.74
2023-05-05T14:40:55.089Z,22.51
2023-05-05T14:45:55.093Z,22.48
2023-05-05T14:50:55.008Z,22.42
2023-05-05T14:55:54.962Z,22.38
2023-05-05T15:00:54.940Z,22.09
2023-05-05T15:05:54.903Z,22.04
2023-05-05T15:10:54.866Z,22.01
2023-05-05T15:15:54.850Z,21.93
2023-05-05T15:20:54.821Z,21.59
2023-05-05T15:25:54.768Z,21.33
2023-05-05T15:30:54.732Z,21.18
2023-05-05T15:35:54.751Z,21.12
2023-05-05T15:40:54.693Z,21.13
2023-05-05T15:45:54.657Z,21.06
2023-05-05T15:50:54.627Z,20.94
2023-05-05T15:55:54.572Z,20.91
2023-05-05T16:00:54.559Z,20.85
2023-05-05T16:05:54.767Z,20.88
2023-05-05T16:10:54.470Z,20.91
2023-05-05T16:15:54.451Z,20.90
2023-05-05T16:20:54.487Z,20.76
2023-05-05T16:25:54.360Z,20.64
2023-05-05T16:30:54.315Z,20.57
2023-05-05T16:35:54.267Z,20.42
2023-05-05T16:40:54.263Z,20.20
2023-05-05T16:45:54.254Z,20.02
2023-05-05T16:50:54.178Z,19.82
2023-05-05T16:55:54.148Z,19.71
2023-05-05T17:00:54.098Z,19.61
2023-05-05T17:05:54.115Z,19.52
2023-05-05T17:10:54.060Z,19.42
2023-05-05T17:15:54.119Z,19.34
2023-05-05T17:20:54.025Z,19.25
2023-05-05T17:25:54.038Z,19.13
2023-05-05T17:30:54.011Z,19.07
2023-05-05T17:35:54.010Z,18.97
2023-05-05T17:40:53.983Z,18.87
2023-05-05T17:45:54.003Z,18.78
2023-05-05T17:50:53.905Z,18.69
2023-05-05T17:55:53.999Z,18.62
2023-05-05T18:00:53.857Z,18.53
2023-05-05T18:05:53.818Z,18.46
2023-05-05T18:10:53.800Z,18.36
2023-05-05T18:15:53.855Z,18.28
2023-05-05T18:20:53.754Z,18.20
2023-05-05T18:25:54.403Z,18.10
2023-05-05T18:30:53.707Z,18.01
2023-05-05T18:35:53.721Z,17.94
2023-05-05T18:40:53.695Z,17.91
2023-05-05T18:45:53.675Z,17.84
2023-05-05T18:50:53.600Z,17.81
2023-05-05T18:55:53.600Z,17.38
2023-05-05T19:00:53.577Z,17.07
2023-05-05T19:05:53.531Z,16.82
2023-05-05T19:10:53.492Z,16.72
2023-05-05T19:15:53.477Z,16.70
2023-05-05T19:20:53.443Z,16.82
2023-05-05T19:25:53.446Z,16.84
2023-05-05T19:30:53.415Z,16.82
2023-05-05T19:35:53.395Z,16.85
2023-05-05T19:40:53.347Z,16.90
2023-05-05T19:45:53.630Z,16.92
2023-05-05T19:50:53.340Z,16.78
2023-05-05T19:55:53.307Z,16.75
2023-05-05T20:00:53.272Z,16.69
2023-05-05T20:05:53.216Z,16.63
2023-05-05T20:10:53.262Z,16.50
2023-05-05T20:15:54.151Z,16.47
2023-05-05T20:20:53.184Z,16.26
2023-05-05T20:25:53.161Z,16.04
2023-05-05T20:30:53.580Z,15.92
2023-05-05T20:35:53.286Z,15.78
2023-05-05T20:40:53.102Z,15.58
2023-05-05T20:45:53.078Z,15.16
2023-05-05T20:50:53.077Z,14.74
2023-05-05T20:55:53.023Z,14.42
2023-05-05T21:00:53.026Z,14.17
2023-05-05T21:05:52.941Z,14.09
2023-05-05T21:10:53.453Z,14.05
2023-05-05T21:15:52.859Z,13.86
2023-05-05T21:20:52.837Z,13.73
2023-05-05T21:25:52.788Z,13.61
2023-05-05T21:35:52.715Z,13.47
2023-05-05T21:40:52.678Z,13.41
2023-05-05T21:45:52.671Z,13.32
2023-05-05T21:50:52.626Z,13.21
2023-05-05T21:55:52.569Z,13.10
2023-05-05T22:00:52.570Z,13.03
2023-05-05T22:05:52.513Z,12.91
2023-05-05T22:10:52.480Z,12.80
2023-05-05T22:15:52.512Z,12.69
2023-05-05T22:20:52.422Z,12.54
2023-05-05T22:25:52.400Z,12.37
2023-05-05T22:30:52.360Z,12.23
2023-05-05T22:35:52.372Z,12.08
2023-05-05T22:40:52.267Z,11.93
2023-05-05T22:45:52.238Z,11.79
2023-05-05T22:50:52.222Z,11.66
2023-05-05T22:55:52.164Z,11.56
2023-05-05T23:00:52.144Z,11.42
2023-05-05T23:05:52.092Z,11.28
2023-05-05T23:10:52.051Z,11.26
2023-05-05T23:15:52.016Z,11.21
2023-05-05T23:20:51.999Z,11.19
2023-05-05T23:25:51.963Z,11.13
2023-05-05T23:30:51.922Z,11.05
2023-05-05T23:35:51.865Z,10.99
2023-05-05T23:40:51.825Z,10.95
2023-05-05T23:45:51.905Z,10.95
2023-05-05T23:50:51.778Z,10.88
2023-05-05T23:55:51.762Z,10.88
